sensor_id;sensor_type;location;lat;lon;timestamp;P1;durP1;ratioP1;P2;durP2;ratioP2
20776;SDS011;10548;47.504;8.248;2023-07-31T00:01:26;4.20;;;2.47;;
20776;SDS011;10548;47.504;8.248;2023-07-31T00:03:53;3.77;;;2.00;;
20776;SDS011;10548;47.504;8.248;2023-07-31T00:06:20;5.20;;;2.63;;
20776;SDS011;10548;47.504;8.248;2023-07-31T00:08:47;4.27;;;2.47;;
20776;SDS011;10548;47.504;8.248;2023-07-31T00:11:15;7.63;;;2.63;;
20776;SDS011;10548;47.504;8.248;2023-07-31T00:13:42;9.93;;;2.80;;
20776;SDS011;10548;47.504;8.248;2023-07-31T00:16:09;9.50;;;2.73;;
20776;SDS011;10548;47.504;8.248;2023-07-31T00:18:36;6.13;;;2.70;;
20776;SDS011;10548;47.504;8.248;2023-07-31T00:21:03;6.17;;;2.63;;
20776;SDS011;10548;47.504;8.248;2023-07-31T00:23:30;4.80;;;2.50;;
20776;SDS011;10548;47.504;8.248;2023-07-31T00:25:57;6.67;;;2.80;;
20776;SDS011;10548;47.504;8.248;2023-07-31T00:28:24;9.10;;;2.73;;
20776;SDS011;10548;47.504;8.248;2023-07-31T00:30:53;8.27;;;2.30;;
20776;SDS011;10548;47.504;8.248;2023-07-31T00:33:24;11.90;;;2.80;;
20776;SDS011;10548;47.504;8.248;2023-07-31T00:35:51;4.90;;;2.70;;
20776;SDS011;10548;47.504;8.248;2023-07-31T00:38:19;5.07;;;2.50;;
20776;SDS011;10548;47.504;8.248;2023-07-31T00:40:46;4.80;;;2.27;;
20776;SDS011;10548;47.504;8.248;2023-07-31T00:43:13;4.83;;;2.40;;
20776;SDS011;10548;47.504;8.248;2023-07-31T00:45:40;7.13;;;2.47;;
20776;SDS011;10548;47.504;8.248;2023-07-31T00:48:07;6.10;;;2.63;;
20776;SDS011;10548;47.504;8.248;2023-07-31T00:50:35;6.73;;;2.80;;
20776;SDS011;10548;47.504;8.248;2023-07-31T00:53:02;4.50;;;2.70;;
20776;SDS011;10548;47.504;8.248;2023-07-31T00:55:32;6.03;;;2.57;;
20776;SDS011;10548;47.504;8.248;2023-07-31T00:57:59;4.60;;;2.27;;
20776;SDS011;10548;47.504;8.248;2023-07-31T01:00:26;4.80;;;2.23;;
20776;SDS011;10548;47.504;8.248;2023-07-31T01:02:53;4.53;;;2.10;;
20776;SDS011;10548;47.504;8.248;2023-07-31T01:05:23;6.70;;;2.43;;
20776;SDS011;10548;47.504;8.248;2023-07-31T01:08:04;6.40;;;2.63;;
20776;SDS011;10548;47.504;8.248;2023-07-31T01:10:44;8.80;;;2.53;;
20776;SDS011;10548;47.504;8.248;2023-07-31T01:13:16;4.33;;;2.87;;
20776;SDS011;10548;47.504;8.248;2023-07-31T01:15:45;4.73;;;2.90;;
20776;SDS011;10548;47.504;8.248;2023-07-31T01:18:12;5.93;;;2.93;;
20776;SDS011;10548;47.504;8.248;2023-07-31T01:20:39;6.83;;;2.40;;
20776;SDS011;10548;47.504;8.248;2023-07-31T01:24:00;5.37;;;2.50;;
20776;SDS011;10548;47.504;8.248;2023-07-31T01:26:16;11.73;;;2.53;;
20776;SDS011;10548;47.504;8.248;2023-07-31T01:28:53;5.27;;;2.60;;
20776;SDS011;10548;47.504;8.248;2023-07-31T01:31:36;5.63;;;2.33;;
20776;SDS011;10548;47.504;8.248;2023-07-31T01:34:06;8.73;;;3.00;;
20776;SDS011;10548;47.504;8.248;2023-07-31T01:36:36;5.00;;;2.77;;
20776;SDS011;10548;47.504;8.248;2023-07-31T01:39:04;5.23;;;2.43;;
20776;SDS011;10548;47.504;8.248;2023-07-31T01:41:31;8.10;;;2.70;;
20776;SDS011;10548;47.504;8.248;2023-07-31T01:43:58;5.70;;;2.47;;
20776;SDS011;10548;47.504;8.248;2023-07-31T01:46:25;5.50;;;2.20;;
20776;SDS011;10548;47.504;8.248;2023-07-31T01:48:52;4.30;;;2.20;;
20776;SDS011;10548;47.504;8.248;2023-07-31T01:51:19;4.87;;;2.60;;
20776;SDS011;10548;47.504;8.248;2023-07-31T01:53:47;6.13;;;2.50;;
20776;SDS011;10548;47.504;8.248;2023-07-31T01:56:14;9.80;;;2.60;;
20776;SDS011;10548;47.504;8.248;2023-07-31T01:58:41;7.13;;;3.03;;
20776;SDS011;10548;47.504;8.248;2023-07-31T02:01:08;4.10;;;2.57;;
20776;SDS011;10548;47.504;8.248;2023-07-31T02:03:36;6.40;;;2.63;;
20776;SDS011;10548;47.504;8.248;2023-07-31T02:06:03;6.13;;;3.10;;
20776;SDS011;10548;47.504;8.248;2023-07-31T02:08:30;8.20;;;2.97;;
20776;SDS011;10548;47.504;8.248;2023-07-31T02:10:57;8.27;;;3.67;;
20776;SDS011;10548;47.504;8.248;2023-07-31T02:13:24;6.07;;;3.00;;
20776;SDS011;10548;47.504;8.248;2023-07-31T02:15:51;6.20;;;3.43;;
20776;SDS011;10548;47.504;8.248;2023-07-31T02:18:19;6.37;;;2.80;;
20776;SDS011;10548;47.504;8.248;2023-07-31T02:20:54;7.10;;;3.20;;
20776;SDS011;10548;47.504;8.248;2023-07-31T02:23:22;10.87;;;3.63;;
20776;SDS011;10548;47.504;8.248;2023-07-31T02:25:49;7.70;;;3.33;;
20776;SDS011;10548;47.504;8.248;2023-07-31T02:28:16;8.33;;;3.40;;
20776;SDS011;10548;47.504;8.248;2023-07-31T02:30:44;7.97;;;3.50;;
20776;SDS011;10548;47.504;8.248;2023-07-31T02:33:12;8.13;;;3.37;;
20776;SDS011;10548;47.504;8.248;2023-07-31T02:35:40;5.10;;;3.00;;
20776;SDS011;10548;47.504;8.248;2023-07-31T02:38:07;8.57;;;4.23;;
20776;SDS011;10548;47.504;8.248;2023-07-31T02:40:34;6.20;;;3.30;;
20776;SDS011;10548;47.504;8.248;2023-07-31T02:43:01;5.80;;;3.67;;
20776;SDS011;10548;47.504;8.248;2023-07-31T02:45:28;5.63;;;3.23;;
20776;SDS011;10548;47.504;8.248;2023-07-31T02:47:55;8.00;;;3.33;;
20776;SDS011;10548;47.504;8.248;2023-07-31T02:50:23;4.37;;;3.27;;
20776;SDS011;10548;47.504;8.248;2023-07-31T02:52:50;9.87;;;3.23;;
20776;SDS011;10548;47.504;8.248;2023-07-31T02:55:17;11.87;;;3.30;;
20776;SDS011;10548;47.504;8.248;2023-07-31T02:57:44;8.17;;;3.57;;
20776;SDS011;10548;47.504;8.248;2023-07-31T03:00:11;7.43;;;3.30;;
20776;SDS011;10548;47.504;8.248;2023-07-31T03:02:38;6.00;;;3.00;;
20776;SDS011;10548;47.504;8.248;2023-07-31T03:05:06;6.63;;;3.30;;
20776;SDS011;10548;47.504;8.248;2023-07-31T03:07:33;4.20;;;3.27;;
20776;SDS011;10548;47.504;8.248;2023-07-31T03:10:00;11.10;;;3.17;;
20776;SDS011;10548;47.504;8.248;2023-07-31T03:12:28;7.20;;;3.43;;
20776;SDS011;10548;47.504;8.248;2023-07-31T03:14:55;6.13;;;3.00;;
20776;SDS011;10548;47.504;8.248;2023-07-31T03:17:22;5.57;;;3.47;;
20776;SDS011;10548;47.504;8.248;2023-07-31T03:19:49;6.63;;;3.20;;
20776;SDS011;10548;47.504;8.248;2023-07-31T03:22:16;5.93;;;3.10;;
20776;SDS011;10548;47.504;8.248;2023-07-31T03:24:43;5.03;;;3.13;;
20776;SDS011;10548;47.504;8.248;2023-07-31T03:27:10;7.47;;;3.30;;
20776;SDS011;10548;47.504;8.248;2023-07-31T03:29:37;4.43;;;3.10;;
20776;SDS011;10548;47.504;8.248;2023-07-31T03:32:05;5.10;;;3.27;;
20776;SDS011;10548;47.504;8.248;2023-07-31T03:34:32;6.33;;;3.17;;
20776;SDS011;10548;47.504;8.248;2023-07-31T03:37:00;6.23;;;3.50;;
20776;SDS011;10548;47.504;8.248;2023-07-31T03:39:27;7.67;;;3.60;;
20776;SDS011;10548;47.504;8.248;2023-07-31T03:41:54;10.73;;;3.63;;
20776;SDS011;10548;47.504;8.248;2023-07-31T03:44:22;7.23;;;4.00;;
20776;SDS011;10548;47.504;8.248;2023-07-31T03:46:49;6.77;;;3.63;;
20776;SDS011;10548;47.504;8.248;2023-07-31T03:49:17;9.60;;;3.93;;
20776;SDS011;10548;47.504;8.248;2023-07-31T03:51:45;5.60;;;3.30;;
20776;SDS011;10548;47.504;8.248;2023-07-31T03:54:12;5.70;;;2.93;;
20776;SDS011;10548;47.504;8.248;2023-07-31T03:56:40;5.97;;;3.23;;
20776;SDS011;10548;47.504;8.248;2023-07-31T03:59:08;9.47;;;3.53;;
20776;SDS011;10548;47.504;8.248;2023-07-31T04:01:35;5.53;;;3.10;;
20776;SDS011;10548;47.504;8.248;2023-07-31T04:04:02;8.30;;;4.13;;
20776;SDS011;10548;47.504;8.248;2023-07-31T04:06:29;6.77;;;3.30;;
20776;SDS011;10548;47.504;8.248;2023-07-31T04:08:57;4.93;;;3.47;;
20776;SDS011;10548;47.504;8.248;2023-07-31T04:11:24;8.45;;;4.20;;
20776;SDS011;10548;47.504;8.248;2023-07-31T04:13:51;4.97;;;3.40;;
20776;SDS011;10548;47.504;8.248;2023-07-31T04:16:18;8.40;;;4.03;;
20776;SDS011;10548;47.504;8.248;2023-07-31T04:18:45;6.70;;;3.77;;
20776;SDS011;10548;47.504;8.248;2023-07-31T04:21:12;6.70;;;3.60;;
20776;SDS011;10548;47.504;8.248;2023-07-31T04:23:39;6.83;;;3.80;;
20776;SDS011;10548;47.504;8.248;2023-07-31T04:26:06;5.67;;;3.33;;
20776;SDS011;10548;47.504;8.248;2023-07-31T04:28:33;5.27;;;3.53;;
20776;SDS011;10548;47.504;8.248;2023-07-31T04:31:01;5.60;;;3.27;;
20776;SDS011;10548;47.504;8.248;2023-07-31T04:33:28;8.50;;;3.23;;
20776;SDS011;10548;47.504;8.248;2023-07-31T04:35:55;4.17;;;3.00;;
20776;SDS011;10548;47.504;8.248;2023-07-31T04:38:22;4.43;;;3.33;;
20776;SDS011;10548;47.504;8.248;2023-07-31T04:40:49;5.73;;;3.30;;
20776;SDS011;10548;47.504;8.248;2023-07-31T04:43:16;4.67;;;3.30;;
20776;SDS011;10548;47.504;8.248;2023-07-31T04:45:46;7.37;;;3.87;;
20776;SDS011;10548;47.504;8.248;2023-07-31T04:48:14;6.83;;;3.43;;
20776;SDS011;10548;47.504;8.248;2023-07-31T04:50:41;6.77;;;3.60;;
20776;SDS011;10548;47.504;8.248;2023-07-31T04:53:08;5.90;;;3.27;;
20776;SDS011;10548;47.504;8.248;2023-07-31T04:55:35;6.70;;;3.10;;
20776;SDS011;10548;47.504;8.248;2023-07-31T04:58:02;4.80;;;2.90;;
20776;SDS011;10548;47.504;8.248;2023-07-31T05:00:29;8.20;;;3.43;;
20776;SDS011;10548;47.504;8.248;2023-07-31T05:02:57;5.53;;;3.40;;
20776;SDS011;10548;47.504;8.248;2023-07-31T05:05:24;5.30;;;3.00;;
20776;SDS011;10548;47.504;8.248;2023-07-31T05:07:51;7.43;;;3.33;;
20776;SDS011;10548;47.504;8.248;2023-07-31T05:10:18;8.23;;;3.70;;
20776;SDS011;10548;47.504;8.248;2023-07-31T05:12:45;6.13;;;3.67;;
20776;SDS011;10548;47.504;8.248;2023-07-31T05:15:12;10.17;;;3.90;;
20776;SDS011;10548;47.504;8.248;2023-07-31T05:17:42;8.20;;;3.53;;
20776;SDS011;10548;47.504;8.248;2023-07-31T05:20:09;6.57;;;4.10;;
20776;SDS011;10548;47.504;8.248;2023-07-31T05:22:37;7.20;;;3.60;;
20776;SDS011;10548;47.504;8.248;2023-07-31T05:25:04;5.43;;;4.00;;
20776;SDS011;10548;47.504;8.248;2023-07-31T05:27:32;8.80;;;3.80;;
20776;SDS011;10548;47.504;8.248;2023-07-31T05:29:59;7.00;;;3.80;;
20776;SDS011;10548;47.504;8.248;2023-07-31T05:32:26;6.17;;;4.20;;
20776;SDS011;10548;47.504;8.248;2023-07-31T05:34:53;8.97;;;4.27;;
20776;SDS011;10548;47.504;8.248;2023-07-31T05:37:20;6.53;;;3.73;;
20776;SDS011;10548;47.504;8.248;2023-07-31T05:39:47;10.10;;;4.07;;
20776;SDS011;10548;47.504;8.248;2023-07-31T05:42:15;9.13;;;4.03;;
20776;SDS011;10548;47.504;8.248;2023-07-31T05:44:42;9.30;;;3.97;;
20776;SDS011;10548;47.504;8.248;2023-07-31T05:47:10;8.03;;;3.77;;
20776;SDS011;10548;47.504;8.248;2023-07-31T05:49:37;8.70;;;3.37;;
20776;SDS011;10548;47.504;8.248;2023-07-31T05:52:04;11.30;;;3.87;;
20776;SDS011;10548;47.504;8.248;2023-07-31T05:54:32;7.97;;;3.77;;
20776;SDS011;10548;47.504;8.248;2023-07-31T05:56:59;7.47;;;3.57;;
20776;SDS011;10548;47.504;8.248;2023-07-31T05:59:26;8.73;;;3.53;;
20776;SDS011;10548;47.504;8.248;2023-07-31T06:01:54;8.40;;;3.63;;
20776;SDS011;10548;47.504;8.248;2023-07-31T06:04:21;7.93;;;3.93;;
20776;SDS011;10548;47.504;8.248;2023-07-31T06:06:51;10.03;;;4.20;;
20776;SDS011;10548;47.504;8.248;2023-07-31T06:09:18;6.53;;;3.67;;
20776;SDS011;10548;47.504;8.248;2023-07-31T06:11:46;7.20;;;4.00;;
20776;SDS011;10548;47.504;8.248;2023-07-31T06:14:14;9.57;;;3.47;;
20776;SDS011;10548;47.504;8.248;2023-07-31T06:16:41;11.23;;;3.93;;
20776;SDS011;10548;47.504;8.248;2023-07-31T06:19:08;5.57;;;3.47;;
20776;SDS011;10548;47.504;8.248;2023-07-31T06:21:35;7.10;;;3.53;;
20776;SDS011;10548;47.504;8.248;2023-07-31T06:24:04;6.70;;;3.00;;
20776;SDS011;10548;47.504;8.248;2023-07-31T06:26:32;7.97;;;3.30;;
20776;SDS011;10548;47.504;8.248;2023-07-31T06:28:59;7.23;;;3.17;;
20776;SDS011;10548;47.504;8.248;2023-07-31T06:31:26;7.27;;;3.27;;
20776;SDS011;10548;47.504;8.248;2023-07-31T06:33:53;8.07;;;3.73;;
20776;SDS011;10548;47.504;8.248;2023-07-31T06:36:21;5.00;;;2.90;;
20776;SDS011;10548;47.504;8.248;2023-07-31T06:38:48;10.53;;;3.57;;
20776;SDS011;10548;47.504;8.248;2023-07-31T06:41:15;6.43;;;2.73;;
20776;SDS011;10548;47.504;8.248;2023-07-31T06:43:42;4.47;;;2.63;;
20776;SDS011;10548;47.504;8.248;2023-07-31T06:46:09;9.43;;;3.23;;
20776;SDS011;10548;47.504;8.248;2023-07-31T06:48:37;5.73;;;2.83;;
20776;SDS011;10548;47.504;8.248;2023-07-31T06:51:04;5.93;;;2.87;;
20776;SDS011;10548;47.504;8.248;2023-07-31T06:53:31;8.23;;;3.00;;
20776;SDS011;10548;47.504;8.248;2023-07-31T06:55:58;6.00;;;2.97;;
20776;SDS011;10548;47.504;8.248;2023-07-31T06:58:25;7.50;;;3.10;;
20776;SDS011;10548;47.504;8.248;2023-07-31T07:00:53;7.37;;;2.90;;
20776;SDS011;10548;47.504;8.248;2023-07-31T07:03:20;4.03;;;2.40;;
20776;SDS011;10548;47.504;8.248;2023-07-31T07:05:47;8.70;;;2.90;;
20776;SDS011;10548;47.504;8.248;2023-07-31T07:08:14;5.50;;;3.00;;
20776;SDS011;10548;47.504;8.248;2023-07-31T07:10:41;6.97;;;3.20;;
20776;SDS011;10548;47.504;8.248;2023-07-31T07:13:08;7.63;;;2.40;;
20776;SDS011;10548;47.504;8.248;2023-07-31T07:15:36;6.37;;;2.90;;
20776;SDS011;10548;47.504;8.248;2023-07-31T07:18:03;7.73;;;2.87;;
20776;SDS011;10548;47.504;8.248;2023-07-31T07:20:30;5.97;;;2.80;;
20776;SDS011;10548;47.504;8.248;2023-07-31T07:22:57;5.23;;;2.33;;
20776;SDS011;10548;47.504;8.248;2023-07-31T07:25:24;7.70;;;3.13;;
20776;SDS011;10548;47.504;8.248;2023-07-31T07:27:52;4.77;;;2.57;;
20776;SDS011;10548;47.504;8.248;2023-07-31T07:30:19;6.47;;;2.90;;
20776;SDS011;10548;47.504;8.248;2023-07-31T07:32:46;10.07;;;2.83;;
20776;SDS011;10548;47.504;8.248;2023-07-31T07:35:13;5.33;;;2.47;;
20776;SDS011;10548;47.504;8.248;2023-07-31T07:37:40;7.20;;;3.50;;
20776;SDS011;10548;47.504;8.248;2023-07-31T07:40:08;7.70;;;3.07;;
20776;SDS011;10548;47.504;8.248;2023-07-31T07:42:35;5.50;;;2.63;;
20776;SDS011;10548;47.504;8.248;2023-07-31T07:45:02;5.83;;;2.80;;
20776;SDS011;10548;47.504;8.248;2023-07-31T07:47:30;9.77;;;3.43;;
20776;SDS011;10548;47.504;8.248;2023-07-31T07:49:57;6.80;;;2.53;;
20776;SDS011;10548;47.504;8.248;2023-07-31T07:52:24;7.67;;;2.50;;
20776;SDS011;10548;47.504;8.248;2023-07-31T07:54:51;5.43;;;2.20;;
20776;SDS011;10548;47.504;8.248;2023-07-31T07:57:18;7.93;;;2.37;;
20776;SDS011;10548;47.504;8.248;2023-07-31T07:59:46;9.07;;;2.60;;
20776;SDS011;10548;47.504;8.248;2023-07-31T08:02:13;8.03;;;2.57;;
20776;SDS011;10548;47.504;8.248;2023-07-31T08:04:40;5.33;;;2.00;;
20776;SDS011;10548;47.504;8.248;2023-07-31T08:07:07;6.50;;;2.60;;
20776;SDS011;10548;47.504;8.248;2023-07-31T08:09:34;3.40;;;2.03;;
20776;SDS011;10548;47.504;8.248;2023-07-31T08:12:01;4.37;;;2.43;;
20776;SDS011;10548;47.504;8.248;2023-07-31T08:14:29;8.30;;;2.80;;
20776;SDS011;10548;47.504;8.248;2023-07-31T08:16:58;7.20;;;2.60;;
20776;SDS011;10548;47.504;8.248;2023-07-31T08:19:26;8.93;;;2.30;;
20776;SDS011;10548;47.504;8.248;2023-07-31T08:21:54;5.87;;;2.70;;
20776;SDS011;10548;47.504;8.248;2023-07-31T08:24:24;5.53;;;1.97;;
20776;SDS011;10548;47.504;8.248;2023-07-31T08:26:51;6.20;;;2.40;;
20776;SDS011;10548;47.504;8.248;2023-07-31T08:29:18;7.47;;;2.93;;
20776;SDS011;10548;47.504;8.248;2023-07-31T08:31:45;6.03;;;2.60;;
20776;SDS011;10548;47.504;8.248;2023-07-31T08:34:12;5.17;;;2.13;;
20776;SDS011;10548;47.504;8.248;2023-07-31T08:36:39;6.50;;;2.27;;
20776;SDS011;10548;47.504;8.248;2023-07-31T08:39:07;6.30;;;2.90;;
20776;SDS011;10548;47.504;8.248;2023-07-31T08:41:37;6.03;;;2.70;;
20776;SDS011;10548;47.504;8.248;2023-07-31T08:44:08;7.27;;;2.20;;
20776;SDS011;10548;47.504;8.248;2023-07-31T08:46:37;7.03;;;2.20;;
20776;SDS011;10548;47.504;8.248;2023-07-31T08:49:05;6.87;;;2.50;;
20776;SDS011;10548;47.504;8.248;2023-07-31T08:51:36;6.47;;;2.37;;
20776;SDS011;10548;47.504;8.248;2023-07-31T08:54:04;7.03;;;2.40;;
20776;SDS011;10548;47.504;8.248;2023-07-31T08:56:34;9.23;;;2.17;;
20776;SDS011;10548;47.504;8.248;2023-07-31T08:59:03;5.63;;;2.40;;
20776;SDS011;10548;47.504;8.248;2023-07-31T09:01:31;5.27;;;2.13;;
20776;SDS011;10548;47.504;8.248;2023-07-31T09:04:02;4.67;;;2.00;;
20776;SDS011;10548;47.504;8.248;2023-07-31T09:06:31;5.70;;;2.07;;
20776;SDS011;10548;47.504;8.248;2023-07-31T09:09:00;6.87;;;2.27;;
20776;SDS011;10548;47.504;8.248;2023-07-31T09:11:27;5.60;;;2.27;;
20776;SDS011;10548;47.504;8.248;2023-07-31T09:13:56;8.53;;;2.60;;
20776;SDS011;10548;47.504;8.248;2023-07-31T09:16:27;7.77;;;2.70;;
20776;SDS011;10548;47.504;8.248;2023-07-31T09:18:57;5.17;;;2.10;;
20776;SDS011;10548;47.504;8.248;2023-07-31T09:21:25;5.67;;;2.10;;
20776;SDS011;10548;47.504;8.248;2023-07-31T09:23:55;6.43;;;2.23;;
20776;SDS011;10548;47.504;8.248;2023-07-31T09:26:33;7.07;;;2.37;;
20776;SDS011;10548;47.504;8.248;2023-07-31T09:29:03;4.83;;;2.10;;
20776;SDS011;10548;47.504;8.248;2023-07-31T09:31:38;3.87;;;2.20;;
20776;SDS011;10548;47.504;8.248;2023-07-31T09:34:06;7.70;;;2.40;;
20776;SDS011;10548;47.504;8.248;2023-07-31T09:36:47;4.00;;;1.97;;
20776;SDS011;10548;47.504;8.248;2023-07-31T09:39:16;6.50;;;2.43;;
20776;SDS011;10548;47.504;8.248;2023-07-31T09:41:55;3.87;;;2.50;;
20776;SDS011;10548;47.504;8.248;2023-07-31T09:44:39;9.77;;;2.60;;
20776;SDS011;10548;47.504;8.248;2023-07-31T09:47:20;5.50;;;2.20;;
20776;SDS011;10548;47.504;8.248;2023-07-31T09:49:52;6.03;;;2.60;;
20776;SDS011;10548;47.504;8.248;2023-07-31T09:52:19;5.40;;;1.90;;
20776;SDS011;10548;47.504;8.248;2023-07-31T09:54:46;5.07;;;2.23;;
20776;SDS011;10548;47.504;8.248;2023-07-31T09:57:14;4.37;;;2.20;;
20776;SDS011;10548;47.504;8.248;2023-07-31T09:59:44;4.77;;;2.17;;
20776;SDS011;10548;47.504;8.248;2023-07-31T10:02:14;4.43;;;2.00;;
20776;SDS011;10548;47.504;8.248;2023-07-31T10:04:45;5.47;;;2.80;;
20776;SDS011;10548;47.504;8.248;2023-07-31T10:07:13;5.67;;;2.47;;
20776;SDS011;10548;47.504;8.248;2023-07-31T10:09:43;7.77;;;2.43;;
20776;SDS011;10548;47.504;8.248;2023-07-31T10:12:13;4.73;;;2.20;;
20776;SDS011;10548;47.504;8.248;2023-07-31T10:14:43;6.10;;;2.23;;
20776;SDS011;10548;47.504;8.248;2023-07-31T10:17:11;5.40;;;2.27;;
20776;SDS011;10548;47.504;8.248;2023-07-31T10:19:39;6.67;;;2.10;;
20776;SDS011;10548;47.504;8.248;2023-07-31T10:22:06;8.70;;;2.40;;
20776;SDS011;10548;47.504;8.248;2023-07-31T10:24:38;4.63;;;2.30;;
20776;SDS011;10548;47.504;8.248;2023-07-31T10:27:06;5.70;;;2.63;;
20776;SDS011;10548;47.504;8.248;2023-07-31T10:29:34;6.70;;;2.10;;
20776;SDS011;10548;47.504;8.248;2023-07-31T10:32:02;7.43;;;2.33;;
20776;SDS011;10548;47.504;8.248;2023-07-31T10:34:33;8.93;;;2.37;;
20776;SDS011;10548;47.504;8.248;2023-07-31T10:37:20;6.40;;;2.20;;
20776;SDS011;10548;47.504;8.248;2023-07-31T10:39:56;5.60;;;2.33;;
20776;SDS011;10548;47.504;8.248;2023-07-31T10:42:27;6.77;;;2.50;;
20776;SDS011;10548;47.504;8.248;2023-07-31T10:45:07;5.30;;;2.20;;
20776;SDS011;10548;47.504;8.248;2023-07-31T10:47:44;4.07;;;2.13;;
20776;SDS011;10548;47.504;8.248;2023-07-31T10:50:16;5.00;;;2.47;;
20776;SDS011;10548;47.504;8.248;2023-07-31T10:52:50;4.43;;;2.10;;
20776;SDS011;10548;47.504;8.248;2023-07-31T10:58:12;5.20;;;2.40;;
20776;SDS011;10548;47.504;8.248;2023-07-31T11:00:41;8.60;;;2.67;;
20776;SDS011;10548;47.504;8.248;2023-07-31T11:03:13;5.30;;;2.57;;
20776;SDS011;10548;47.504;8.248;2023-07-31T11:05:52;4.97;;;2.30;;
20776;SDS011;10548;47.504;8.248;2023-07-31T11:08:26;6.90;;;2.40;;
20776;SDS011;10548;47.504;8.248;2023-07-31T11:11:05;4.67;;;2.50;;
20776;SDS011;10548;47.504;8.248;2023-07-31T11:13:41;5.67;;;2.13;;
20776;SDS011;10548;47.504;8.248;2023-07-31T11:16:10;4.63;;;1.87;;
20776;SDS011;10548;47.504;8.248;2023-07-31T11:18:45;5.60;;;2.20;;
20776;SDS011;10548;47.504;8.248;2023-07-31T11:21:18;6.77;;;2.07;;
20776;SDS011;10548;47.504;8.248;2023-07-31T11:23:56;3.97;;;2.17;;
20776;SDS011;10548;47.504;8.248;2023-07-31T11:26:26;6.67;;;2.50;;
20776;SDS011;10548;47.504;8.248;2023-07-31T11:28:54;4.77;;;2.23;;
20776;SDS011;10548;47.504;8.248;2023-07-31T11:31:21;4.87;;;2.50;;
20776;SDS011;10548;47.504;8.248;2023-07-31T11:33:49;6.47;;;2.70;;
20776;SDS011;10548;47.504;8.248;2023-07-31T11:36:16;5.90;;;2.67;;
20776;SDS011;10548;47.504;8.248;2023-07-31T11:38:45;5.47;;;2.20;;
20776;SDS011;10548;47.504;8.248;2023-07-31T11:41:16;4.07;;;1.93;;
20776;SDS011;10548;47.504;8.248;2023-07-31T11:43:45;19.93;;;3.47;;
20776;SDS011;10548;47.504;8.248;2023-07-31T11:46:13;4.33;;;2.10;;
20776;SDS011;10548;47.504;8.248;2023-07-31T11:48:41;5.57;;;2.30;;
20776;SDS011;10548;47.504;8.248;2023-07-31T11:51:10;7.30;;;2.30;;
20776;SDS011;10548;47.504;8.248;2023-07-31T11:53:41;10.30;;;2.40;;
20776;SDS011;10548;47.504;8.248;2023-07-31T11:56:12;7.67;;;2.37;;
20776;SDS011;10548;47.504;8.248;2023-07-31T11:58:40;4.53;;;2.30;;
20776;SDS011;10548;47.504;8.248;2023-07-31T12:01:11;3.40;;;1.97;;
20776;SDS011;10548;47.504;8.248;2023-07-31T12:03:44;5.43;;;2.30;;
20776;SDS011;10548;47.504;8.248;2023-07-31T12:06:13;24.60;;;4.63;;
20776;SDS011;10548;47.504;8.248;2023-07-31T12:08:40;6.23;;;2.23;;
20776;SDS011;10548;47.504;8.248;2023-07-31T12:11:08;5.43;;;2.63;;
20776;SDS011;10548;47.504;8.248;2023-07-31T12:13:36;6.70;;;2.47;;
20776;SDS011;10548;47.504;8.248;2023-07-31T12:16:03;7.03;;;2.40;;
20776;SDS011;10548;47.504;8.248;2023-07-31T12:18:35;5.67;;;2.20;;
20776;SDS011;10548;47.504;8.248;2023-07-31T12:21:07;5.27;;;2.00;;
20776;SDS011;10548;47.504;8.248;2023-07-31T12:23:35;7.27;;;2.23;;
20776;SDS011;10548;47.504;8.248;2023-07-31T12:26:08;4.10;;;2.07;;
20776;SDS011;10548;47.504;8.248;2023-07-31T12:28:44;8.37;;;2.90;;
20776;SDS011;10548;47.504;8.248;2023-07-31T12:31:16;8.30;;;2.77;;
20776;SDS011;10548;47.504;8.248;2023-07-31T12:33:45;4.80;;;2.20;;
20776;SDS011;10548;47.504;8.248;2023-07-31T12:36:15;5.40;;;2.13;;
20776;SDS011;10548;47.504;8.248;2023-07-31T12:38:44;4.70;;;2.47;;
20776;SDS011;10548;47.504;8.248;2023-07-31T12:41:12;7.07;;;2.40;;
20776;SDS011;10548;47.504;8.248;2023-07-31T12:43:40;5.30;;;2.53;;
20776;SDS011;10548;47.504;8.248;2023-07-31T12:46:07;6.60;;;2.60;;
20776;SDS011;10548;47.504;8.248;2023-07-31T12:48:36;7.73;;;2.17;;
20776;SDS011;10548;47.504;8.248;2023-07-31T12:51:04;6.87;;;2.60;;
20776;SDS011;10548;47.504;8.248;2023-07-31T12:53:33;7.67;;;2.50;;
20776;SDS011;10548;47.504;8.248;2023-07-31T12:56:00;8.70;;;2.73;;
20776;SDS011;10548;47.504;8.248;2023-07-31T12:58:29;6.03;;;2.53;;
20776;SDS011;10548;47.504;8.248;2023-07-31T13:00:56;4.57;;;2.33;;
20776;SDS011;10548;47.504;8.248;2023-07-31T13:03:23;4.33;;;2.10;;
20776;SDS011;10548;47.504;8.248;2023-07-31T13:05:50;2.73;;;2.00;;
20776;SDS011;10548;47.504;8.248;2023-07-31T13:08:19;3.80;;;2.40;;
20776;SDS011;10548;47.504;8.248;2023-07-31T13:10:46;6.03;;;2.40;;
20776;SDS011;10548;47.504;8.248;2023-07-31T13:13:13;7.20;;;2.93;;
20776;SDS011;10548;47.504;8.248;2023-07-31T13:15:41;6.87;;;2.37;;
20776;SDS011;10548;47.504;8.248;2023-07-31T13:18:08;4.80;;;2.53;;
20776;SDS011;10548;47.504;8.248;2023-07-31T13:20:36;4.80;;;2.67;;
20776;SDS011;10548;47.504;8.248;2023-07-31T13:23:03;7.40;;;2.47;;
20776;SDS011;10548;47.504;8.248;2023-07-31T13:25:30;3.67;;;2.23;;
20776;SDS011;10548;47.504;8.248;2023-07-31T13:27:57;8.53;;;2.40;;
20776;SDS011;10548;47.504;8.248;2023-07-31T13:30:28;5.17;;;2.33;;
20776;SDS011;10548;47.504;8.248;2023-07-31T13:32:55;5.17;;;2.13;;
20776;SDS011;10548;47.504;8.248;2023-07-31T13:35:22;5.50;;;2.23;;
20776;SDS011;10548;47.504;8.248;2023-07-31T13:37:49;7.13;;;2.70;;
20776;SDS011;10548;47.504;8.248;2023-07-31T13:40:17;4.40;;;2.20;;
20776;SDS011;10548;47.504;8.248;2023-07-31T13:42:44;4.23;;;2.43;;
20776;SDS011;10548;47.504;8.248;2023-07-31T13:45:11;5.50;;;2.63;;
20776;SDS011;10548;47.504;8.248;2023-07-31T13:47:38;6.43;;;2.50;;
20776;SDS011;10548;47.504;8.248;2023-07-31T13:50:05;4.87;;;2.40;;
20776;SDS011;10548;47.504;8.248;2023-07-31T13:52:33;4.60;;;2.20;;
20776;SDS011;10548;47.504;8.248;2023-07-31T13:55:00;6.10;;;2.70;;
20776;SDS011;10548;47.504;8.248;2023-07-31T13:57:27;5.80;;;2.27;;
20776;SDS011;10548;47.504;8.248;2023-07-31T13:59:54;6.10;;;2.20;;
20776;SDS011;10548;47.504;8.248;2023-07-31T14:02:22;9.00;;;2.83;;
20776;SDS011;10548;47.504;8.248;2023-07-31T14:04:49;9.80;;;2.50;;
20776;SDS011;10548;47.504;8.248;2023-07-31T14:07:16;16.37;;;2.80;;
20776;SDS011;10548;47.504;8.248;2023-07-31T14:09:44;6.90;;;2.53;;
20776;SDS011;10548;47.504;8.248;2023-07-31T14:12:11;6.37;;;2.60;;
20776;SDS011;10548;47.504;8.248;2023-07-31T14:14:40;3.73;;;2.43;;
20776;SDS011;10548;47.504;8.248;2023-07-31T14:17:07;3.40;;;2.20;;
20776;SDS011;10548;47.504;8.248;2023-07-31T14:19:34;5.83;;;2.60;;
20776;SDS011;10548;47.504;8.248;2023-07-31T14:22:01;4.37;;;2.60;;
20776;SDS011;10548;47.504;8.248;2023-07-31T14:24:37;4.57;;;2.30;;
20776;SDS011;10548;47.504;8.248;2023-07-31T14:27:05;6.53;;;2.60;;
20776;SDS011;10548;47.504;8.248;2023-07-31T14:29:32;7.10;;;2.87;;
20776;SDS011;10548;47.504;8.248;2023-07-31T14:31:59;6.63;;;2.23;;
20776;SDS011;10548;47.504;8.248;2023-07-31T14:34:27;5.87;;;2.50;;
20776;SDS011;10548;47.504;8.248;2023-07-31T14:36:54;7.33;;;2.40;;
20776;SDS011;10548;47.504;8.248;2023-07-31T14:39:21;6.20;;;2.90;;
20776;SDS011;10548;47.504;8.248;2023-07-31T14:41:48;5.60;;;2.67;;
20776;SDS011;10548;47.504;8.248;2023-07-31T14:44:15;4.53;;;2.57;;
20776;SDS011;10548;47.504;8.248;2023-07-31T14:46:42;4.87;;;2.43;;
20776;SDS011;10548;47.504;8.248;2023-07-31T14:49:09;5.87;;;2.60;;
20776;SDS011;10548;47.504;8.248;2023-07-31T14:51:37;4.13;;;2.70;;
20776;SDS011;10548;47.504;8.248;2023-07-31T14:54:04;9.23;;;2.97;;
20776;SDS011;10548;47.504;8.248;2023-07-31T14:56:31;8.73;;;3.30;;
20776;SDS011;10548;47.504;8.248;2023-07-31T14:58:58;4.50;;;2.70;;